Grafton, Iowa
Current Conditions -  °F | °C
As of 6:53 AM on Thursday 30 Oct 2014 (Local Time) from KMCW Reporting Station
Overcast Overcast  
Wind Chill: 37°   Ceiling: 8500
Heat Index: 37°   Visibility: 10mi
Dew Point: 35°   Wind: 3mph
Humidity: 93%   Direction: 120°ESE
Pressure: 30.04"   Gusts: NA
Location:  43.33°N, 93.07°W
Report Text: KMCW 301153Z AUTO 12003KT 10SM OVC085 03/02 A3004 RMK AO2 SLP177 T00280017 10028 20000 56008
Loading
Personal Weather Stations






























Interactive Weather Map
Tropical Storm Tracking
New forecast layout! Learn more

10-Day Weather Forecast

Advertisements
Track Severe Weather on mobile